sensor_id;sensor_type;location;lat;lon;timestamp;P1;durP1;ratioP1;P2;durP2;ratioP2
5795;SDS011;2924;51.458;7.046;2024-02-15T00:01:51;17.80;;;10.27;;
5795;SDS011;2924;51.458;7.046;2024-02-15T00:04:16;26.00;;;10.90;;
5795;SDS011;2924;51.458;7.046;2024-02-15T00:06:44;20.57;;;11.87;;
5795;SDS011;2924;51.458;7.046;2024-02-15T00:09:10;22.90;;;11.70;;
5795;SDS011;2924;51.458;7.046;2024-02-15T00:11:35;31.37;;;12.53;;
5795;SDS011;2924;51.458;7.046;2024-02-15T00:14:01;19.83;;;11.40;;
5795;SDS011;2924;51.458;7.046;2024-02-15T00:16:26;14.47;;;11.60;;
5795;SDS011;2924;51.458;7.046;2024-02-15T00:18:52;21.57;;;12.20;;
5795;SDS011;2924;51.458;7.046;2024-02-15T00:21:20;19.37;;;12.20;;
5795;SDS011;2924;51.458;7.046;2024-02-15T00:23:47;17.43;;;12.07;;
5795;SDS011;2924;51.458;7.046;2024-02-15T00:26:13;22.23;;;12.47;;
5795;SDS011;2924;51.458;7.046;2024-02-15T00:28:41;27.23;;;12.00;;
5795;SDS011;2924;51.458;7.046;2024-02-15T00:31:07;27.07;;;12.70;;
5795;SDS011;2924;51.458;7.046;2024-02-15T00:33:33;17.00;;;12.10;;
5795;SDS011;2924;51.458;7.046;2024-02-15T00:36:01;21.70;;;12.20;;
5795;SDS011;2924;51.458;7.046;2024-02-15T00:38:28;20.63;;;12.53;;
5795;SDS011;2924;51.458;7.046;2024-02-15T00:40:54;18.07;;;11.90;;
5795;SDS011;2924;51.458;7.046;2024-02-15T00:43:20;23.13;;;12.77;;
5795;SDS011;2924;51.458;7.046;2024-02-15T00:45:45;16.70;;;12.50;;
5795;SDS011;2924;51.458;7.046;2024-02-15T00:48:11;19.90;;;12.20;;
5795;SDS011;2924;51.458;7.046;2024-02-15T00:50:37;26.73;;;11.50;;
5795;SDS011;2924;51.458;7.046;2024-02-15T00:53:03;22.27;;;13.47;;
5795;SDS011;2924;51.458;7.046;2024-02-15T00:55:29;28.43;;;12.80;;
5795;SDS011;2924;51.458;7.046;2024-02-15T00:57:54;17.60;;;12.67;;
5795;SDS011;2924;51.458;7.046;2024-02-15T01:00:20;23.70;;;14.23;;
5795;SDS011;2924;51.458;7.046;2024-02-15T01:02:45;23.57;;;14.37;;
5795;SDS011;2924;51.458;7.046;2024-02-15T01:05:11;31.20;;;14.87;;
5795;SDS011;2924;51.458;7.046;2024-02-15T01:07:40;24.23;;;13.30;;
5795;SDS011;2924;51.458;7.046;2024-02-15T01:10:06;23.33;;;13.13;;
5795;SDS011;2924;51.458;7.046;2024-02-15T01:12:32;21.83;;;13.10;;
5795;SDS011;2924;51.458;7.046;2024-02-15T01:14:58;25.43;;;13.90;;
5795;SDS011;2924;51.458;7.046;2024-02-15T01:17:23;30.20;;;13.93;;
5795;SDS011;2924;51.458;7.046;2024-02-15T01:19:49;26.03;;;13.47;;
5795;SDS011;2924;51.458;7.046;2024-02-15T01:22:14;31.70;;;14.00;;
5795;SDS011;2924;51.458;7.046;2024-02-15T01:24:40;27.17;;;13.77;;
5795;SDS011;2924;51.458;7.046;2024-02-15T01:27:06;27.23;;;13.37;;
5795;SDS011;2924;51.458;7.046;2024-02-15T01:29:32;22.13;;;12.47;;
5795;SDS011;2924;51.458;7.046;2024-02-15T01:31:58;39.67;;;14.00;;
5795;SDS011;2924;51.458;7.046;2024-02-15T01:34:24;32.50;;;13.33;;
5795;SDS011;2924;51.458;7.046;2024-02-15T01:36:49;27.57;;;13.37;;
5795;SDS011;2924;51.458;7.046;2024-02-15T01:39:15;25.60;;;13.73;;
5795;SDS011;2924;51.458;7.046;2024-02-15T01:41:45;18.30;;;11.77;;
5795;SDS011;2924;51.458;7.046;2024-02-15T01:44:21;20.60;;;11.10;;
5795;SDS011;2924;51.458;7.046;2024-02-15T01:46:49;27.77;;;11.60;;
5795;SDS011;2924;51.458;7.046;2024-02-15T01:49:20;20.03;;;12.37;;
5795;SDS011;2924;51.458;7.046;2024-02-15T01:51:47;29.60;;;12.70;;
5795;SDS011;2924;51.458;7.046;2024-02-15T01:54:14;26.83;;;13.93;;
5795;SDS011;2924;51.458;7.046;2024-02-15T01:56:43;23.43;;;12.77;;
5795;SDS011;2924;51.458;7.046;2024-02-15T01:59:10;23.53;;;13.93;;
5795;SDS011;2924;51.458;7.046;2024-02-15T02:01:38;30.27;;;13.60;;
5795;SDS011;2924;51.458;7.046;2024-02-15T02:04:04;23.13;;;13.50;;
5795;SDS011;2924;51.458;7.046;2024-02-15T02:06:30;24.80;;;13.67;;
5795;SDS011;2924;51.458;7.046;2024-02-15T02:08:56;26.57;;;14.37;;
5795;SDS011;2924;51.458;7.046;2024-02-15T02:11:23;33.67;;;13.23;;
5795;SDS011;2924;51.458;7.046;2024-02-15T02:13:49;35.53;;;12.93;;
5795;SDS011;2924;51.458;7.046;2024-02-15T02:16:27;24.27;;;13.87;;
5795;SDS011;2924;51.458;7.046;2024-02-15T02:18:57;25.23;;;12.80;;
5795;SDS011;2924;51.458;7.046;2024-02-15T02:21:26;29.80;;;13.17;;
5795;SDS011;2924;51.458;7.046;2024-02-15T02:23:58;27.60;;;12.13;;
5795;SDS011;2924;51.458;7.046;2024-02-15T02:26:24;29.27;;;11.93;;
5795;SDS011;2924;51.458;7.046;2024-02-15T02:28:50;25.27;;;12.10;;
5795;SDS011;2924;51.458;7.046;2024-02-15T02:31:19;17.87;;;11.63;;
5795;SDS011;2924;51.458;7.046;2024-02-15T02:33:47;22.30;;;11.40;;
5795;SDS011;2924;51.458;7.046;2024-02-15T02:36:16;24.50;;;11.70;;
5795;SDS011;2924;51.458;7.046;2024-02-15T02:38:43;23.63;;;11.03;;
5795;SDS011;2924;51.458;7.046;2024-02-15T02:41:10;21.73;;;11.20;;
5795;SDS011;2924;51.458;7.046;2024-02-15T02:43:36;26.37;;;11.87;;
5795;SDS011;2924;51.458;7.046;2024-02-15T02:46:02;15.93;;;9.73;;
5795;SDS011;2924;51.458;7.046;2024-02-15T02:48:30;27.93;;;11.50;;
5795;SDS011;2924;51.458;7.046;2024-02-15T02:50:56;24.30;;;10.80;;
5795;SDS011;2924;51.458;7.046;2024-02-15T02:53:23;16.70;;;10.00;;
5795;SDS011;2924;51.458;7.046;2024-02-15T02:55:49;21.90;;;9.80;;
5795;SDS011;2924;51.458;7.046;2024-02-15T02:58:15;19.53;;;10.23;;
5795;SDS011;2924;51.458;7.046;2024-02-15T03:00:40;21.13;;;9.80;;
5795;SDS011;2924;51.458;7.046;2024-02-15T03:03:07;30.73;;;11.23;;
5795;SDS011;2924;51.458;7.046;2024-02-15T03:05:34;19.73;;;8.60;;
5795;SDS011;2924;51.458;7.046;2024-02-15T03:08:00;19.40;;;11.00;;
5795;SDS011;2924;51.458;7.046;2024-02-15T03:10:25;15.93;;;8.70;;
5795;SDS011;2924;51.458;7.046;2024-02-15T03:12:51;16.93;;;8.27;;
5795;SDS011;2924;51.458;7.046;2024-02-15T03:15:17;21.13;;;7.87;;
5795;SDS011;2924;51.458;7.046;2024-02-15T03:17:45;16.50;;;8.07;;
5795;SDS011;2924;51.458;7.046;2024-02-15T03:20:12;16.70;;;8.20;;
5795;SDS011;2924;51.458;7.046;2024-02-15T03:25:21;25.37;;;8.10;;
5795;SDS011;2924;51.458;7.046;2024-02-15T03:27:50;24.63;;;8.77;;
5795;SDS011;2924;51.458;7.046;2024-02-15T03:30:17;12.90;;;7.63;;
5795;SDS011;2924;51.458;7.046;2024-02-15T03:32:44;22.13;;;7.80;;
5795;SDS011;2924;51.458;7.046;2024-02-15T03:35:16;13.60;;;7.50;;
5795;SDS011;2924;51.458;7.046;2024-02-15T03:37:43;20.00;;;7.60;;
5795;SDS011;2924;51.458;7.046;2024-02-15T03:40:09;15.60;;;7.47;;
5795;SDS011;2924;51.458;7.046;2024-02-15T03:42:35;21.40;;;7.33;;
5795;SDS011;2924;51.458;7.046;2024-02-15T03:45:03;11.93;;;6.30;;
5795;SDS011;2924;51.458;7.046;2024-02-15T03:47:31;18.50;;;6.93;;
5795;SDS011;2924;51.458;7.046;2024-02-15T03:50:06;21.10;;;6.27;;
5795;SDS011;2924;51.458;7.046;2024-02-15T03:52:36;9.23;;;5.20;;
5795;SDS011;2924;51.458;7.046;2024-02-15T03:55:02;13.90;;;6.50;;
5795;SDS011;2924;51.458;7.046;2024-02-15T03:57:28;17.63;;;5.63;;
5795;SDS011;2924;51.458;7.046;2024-02-15T03:59:54;13.07;;;5.70;;
5795;SDS011;2924;51.458;7.046;2024-02-15T04:02:22;18.13;;;6.03;;
5795;SDS011;2924;51.458;7.046;2024-02-15T04:04:51;11.77;;;6.50;;
5795;SDS011;2924;51.458;7.046;2024-02-15T04:07:19;12.73;;;6.00;;
5795;SDS011;2924;51.458;7.046;2024-02-15T04:09:45;10.30;;;5.33;;
5795;SDS011;2924;51.458;7.046;2024-02-15T04:12:11;20.30;;;5.90;;
5795;SDS011;2924;51.458;7.046;2024-02-15T04:14:37;15.70;;;5.20;;
5795;SDS011;2924;51.458;7.046;2024-02-15T04:17:03;12.77;;;5.10;;
5795;SDS011;2924;51.458;7.046;2024-02-15T04:19:30;15.80;;;5.67;;
5795;SDS011;2924;51.458;7.046;2024-02-15T04:21:56;11.23;;;4.90;;
5795;SDS011;2924;51.458;7.046;2024-02-15T04:24:22;12.00;;;5.20;;
5795;SDS011;2924;51.458;7.046;2024-02-15T04:26:48;7.03;;;4.90;;
5795;SDS011;2924;51.458;7.046;2024-02-15T04:29:14;8.37;;;4.33;;
5795;SDS011;2924;51.458;7.046;2024-02-15T04:31:40;14.37;;;5.60;;
5795;SDS011;2924;51.458;7.046;2024-02-15T04:34:07;6.67;;;3.83;;
5795;SDS011;2924;51.458;7.046;2024-02-15T04:36:35;17.87;;;5.30;;
5795;SDS011;2924;51.458;7.046;2024-02-15T04:39:00;12.83;;;4.47;;
5795;SDS011;2924;51.458;7.046;2024-02-15T04:41:29;17.97;;;5.20;;
5795;SDS011;2924;51.458;7.046;2024-02-15T04:43:55;11.00;;;4.47;;
5795;SDS011;2924;51.458;7.046;2024-02-15T04:46:21;10.20;;;4.23;;
5795;SDS011;2924;51.458;7.046;2024-02-15T04:48:50;8.70;;;3.80;;
5795;SDS011;2924;51.458;7.046;2024-02-15T04:51:16;7.80;;;3.67;;
5795;SDS011;2924;51.458;7.046;2024-02-15T04:53:42;8.80;;;4.20;;
5795;SDS011;2924;51.458;7.046;2024-02-15T04:56:11;7.27;;;3.43;;
5795;SDS011;2924;51.458;7.046;2024-02-15T04:58:41;10.00;;;3.30;;
5795;SDS011;2924;51.458;7.046;2024-02-15T05:01:16;8.10;;;3.73;;
5795;SDS011;2924;51.458;7.046;2024-02-15T05:03:42;6.40;;;3.37;;
5795;SDS011;2924;51.458;7.046;2024-02-15T05:06:12;9.93;;;2.80;;
5795;SDS011;2924;51.458;7.046;2024-02-15T05:08:40;5.50;;;3.13;;
5795;SDS011;2924;51.458;7.046;2024-02-15T05:11:12;10.90;;;3.83;;
5795;SDS011;2924;51.458;7.046;2024-02-15T05:13:44;9.70;;;3.60;;
5795;SDS011;2924;51.458;7.046;2024-02-15T05:16:10;8.70;;;2.93;;
5795;SDS011;2924;51.458;7.046;2024-02-15T05:18:36;7.40;;;2.83;;
5795;SDS011;2924;51.458;7.046;2024-02-15T05:21:03;8.03;;;3.30;;
5795;SDS011;2924;51.458;7.046;2024-02-15T05:23:29;4.70;;;2.30;;
5795;SDS011;2924;51.458;7.046;2024-02-15T05:25:55;8.27;;;2.50;;
5795;SDS011;2924;51.458;7.046;2024-02-15T05:28:21;10.80;;;2.70;;
5795;SDS011;2924;51.458;7.046;2024-02-15T05:31:08;5.87;;;2.17;;
5795;SDS011;2924;51.458;7.046;2024-02-15T05:33:37;10.70;;;2.47;;
5795;SDS011;2924;51.458;7.046;2024-02-15T05:36:12;3.83;;;2.00;;
5795;SDS011;2924;51.458;7.046;2024-02-15T05:38:45;3.87;;;1.90;;
5795;SDS011;2924;51.458;7.046;2024-02-15T05:41:11;5.13;;;2.33;;
5795;SDS011;2924;51.458;7.046;2024-02-15T05:43:38;8.47;;;2.20;;
5795;SDS011;2924;51.458;7.046;2024-02-15T05:46:04;6.23;;;2.57;;
5795;SDS011;2924;51.458;7.046;2024-02-15T05:48:31;7.87;;;2.10;;
5795;SDS011;2924;51.458;7.046;2024-02-15T05:51:00;5.50;;;1.73;;
5795;SDS011;2924;51.458;7.046;2024-02-15T05:53:26;6.07;;;2.03;;
5795;SDS011;2924;51.458;7.046;2024-02-15T05:55:52;5.60;;;2.40;;
5795;SDS011;2924;51.458;7.046;2024-02-15T05:58:18;8.03;;;1.80;;
5795;SDS011;2924;51.458;7.046;2024-02-15T06:00:43;6.13;;;2.00;;
5795;SDS011;2924;51.458;7.046;2024-02-15T06:03:09;8.27;;;2.47;;
5795;SDS011;2924;51.458;7.046;2024-02-15T06:05:36;4.37;;;1.70;;
5795;SDS011;2924;51.458;7.046;2024-02-15T06:08:03;9.80;;;3.10;;
5795;SDS011;2924;51.458;7.046;2024-02-15T06:10:29;6.90;;;2.20;;
5795;SDS011;2924;51.458;7.046;2024-02-15T06:12:56;6.23;;;2.33;;
5795;SDS011;2924;51.458;7.046;2024-02-15T06:15:24;4.00;;;1.70;;
5795;SDS011;2924;51.458;7.046;2024-02-15T06:17:50;2.97;;;1.90;;
5795;SDS011;2924;51.458;7.046;2024-02-15T06:20:15;6.70;;;2.40;;
5795;SDS011;2924;51.458;7.046;2024-02-15T06:22:48;4.60;;;2.33;;
5795;SDS011;2924;51.458;7.046;2024-02-15T06:25:14;11.93;;;2.90;;
5795;SDS011;2924;51.458;7.046;2024-02-15T06:27:46;5.87;;;3.17;;
5795;SDS011;2924;51.458;7.046;2024-02-15T06:30:13;8.73;;;3.00;;
5795;SDS011;2924;51.458;7.046;2024-02-15T06:32:58;6.23;;;2.97;;
5795;SDS011;2924;51.458;7.046;2024-02-15T06:35:42;5.30;;;3.20;;
5795;SDS011;2924;51.458;7.046;2024-02-15T06:38:26;8.50;;;3.10;;
5795;SDS011;2924;51.458;7.046;2024-02-15T06:41:12;5.57;;;2.30;;
5795;SDS011;2924;51.458;7.046;2024-02-15T06:43:38;11.77;;;2.93;;
5795;SDS011;2924;51.458;7.046;2024-02-15T06:46:08;7.07;;;3.83;;
5795;SDS011;2924;51.458;7.046;2024-02-15T06:48:35;7.50;;;2.60;;
5795;SDS011;2924;51.458;7.046;2024-02-15T06:51:02;10.37;;;3.30;;
5795;SDS011;2924;51.458;7.046;2024-02-15T06:53:29;5.63;;;2.00;;
5795;SDS011;2924;51.458;7.046;2024-02-15T06:55:55;7.93;;;3.10;;
5795;SDS011;2924;51.458;7.046;2024-02-15T06:58:21;10.03;;;2.47;;
5795;SDS011;2924;51.458;7.046;2024-02-15T07:00:47;10.07;;;2.10;;
5795;SDS011;2924;51.458;7.046;2024-02-15T07:03:14;11.60;;;2.57;;
5795;SDS011;2924;51.458;7.046;2024-02-15T07:05:41;5.83;;;2.30;;
5795;SDS011;2924;51.458;7.046;2024-02-15T07:08:07;10.33;;;3.70;;
5795;SDS011;2924;51.458;7.046;2024-02-15T07:10:38;4.40;;;2.57;;
5795;SDS011;2924;51.458;7.046;2024-02-15T07:13:04;10.20;;;2.90;;
5795;SDS011;2924;51.458;7.046;2024-02-15T07:15:31;6.60;;;2.60;;
5795;SDS011;2924;51.458;7.046;2024-02-15T07:17:58;3.70;;;1.90;;
5795;SDS011;2924;51.458;7.046;2024-02-15T07:20:24;8.20;;;2.50;;
5795;SDS011;2924;51.458;7.046;2024-02-15T07:22:50;10.60;;;2.40;;
5795;SDS011;2924;51.458;7.046;2024-02-15T07:25:16;4.63;;;2.73;;
5795;SDS011;2924;51.458;7.046;2024-02-15T07:27:43;8.33;;;2.23;;
5795;SDS011;2924;51.458;7.046;2024-02-15T07:30:09;8.90;;;3.70;;
5795;SDS011;2924;51.458;7.046;2024-02-15T07:32:36;10.13;;;3.30;;
5795;SDS011;2924;51.458;7.046;2024-02-15T07:35:02;3.27;;;2.43;;
5795;SDS011;2924;51.458;7.046;2024-02-15T07:37:27;7.07;;;3.10;;
5795;SDS011;2924;51.458;7.046;2024-02-15T07:39:54;5.13;;;2.13;;
5795;SDS011;2924;51.458;7.046;2024-02-15T07:42:19;10.90;;;2.30;;
5795;SDS011;2924;51.458;7.046;2024-02-15T07:44:45;4.57;;;2.20;;
5795;SDS011;2924;51.458;7.046;2024-02-15T07:47:11;4.90;;;2.20;;
5795;SDS011;2924;51.458;7.046;2024-02-15T07:49:36;6.07;;;2.60;;
5795;SDS011;2924;51.458;7.046;2024-02-15T07:52:02;11.50;;;2.47;;
5795;SDS011;2924;51.458;7.046;2024-02-15T07:54:29;11.10;;;2.60;;
5795;SDS011;2924;51.458;7.046;2024-02-15T07:56:58;12.63;;;2.70;;
5795;SDS011;2924;51.458;7.046;2024-02-15T07:59:23;6.53;;;3.20;;
5795;SDS011;2924;51.458;7.046;2024-02-15T08:01:49;6.33;;;2.00;;
5795;SDS011;2924;51.458;7.046;2024-02-15T08:04:18;6.73;;;2.50;;
5795;SDS011;2924;51.458;7.046;2024-02-15T08:06:46;6.40;;;2.17;;
5795;SDS011;2924;51.458;7.046;2024-02-15T08:09:14;7.33;;;1.90;;
5795;SDS011;2924;51.458;7.046;2024-02-15T08:11:42;7.20;;;2.80;;
5795;SDS011;2924;51.458;7.046;2024-02-15T08:14:08;6.27;;;2.20;;
5795;SDS011;2924;51.458;7.046;2024-02-15T08:16:36;8.40;;;3.07;;
5795;SDS011;2924;51.458;7.046;2024-02-15T08:19:02;6.87;;;3.00;;
5795;SDS011;2924;51.458;7.046;2024-02-15T08:21:34;7.50;;;2.90;;
5795;SDS011;2924;51.458;7.046;2024-02-15T08:24:04;8.90;;;2.67;;
5795;SDS011;2924;51.458;7.046;2024-02-15T08:26:33;8.70;;;2.80;;
5795;SDS011;2924;51.458;7.046;2024-02-15T08:29:01;6.43;;;2.03;;
5795;SDS011;2924;51.458;7.046;2024-02-15T08:31:28;8.37;;;2.20;;
5795;SDS011;2924;51.458;7.046;2024-02-15T08:33:55;6.50;;;2.57;;
5795;SDS011;2924;51.458;7.046;2024-02-15T08:36:20;11.80;;;2.97;;
5795;SDS011;2924;51.458;7.046;2024-02-15T08:38:46;3.50;;;2.07;;
5795;SDS011;2924;51.458;7.046;2024-02-15T08:41:12;4.87;;;1.93;;
5795;SDS011;2924;51.458;7.046;2024-02-15T08:43:38;2.17;;;1.80;;
5795;SDS011;2924;51.458;7.046;2024-02-15T08:46:06;5.73;;;1.90;;
5795;SDS011;2924;51.458;7.046;2024-02-15T08:48:32;6.17;;;1.80;;
5795;SDS011;2924;51.458;7.046;2024-02-15T08:50:58;7.40;;;2.00;;
5795;SDS011;2924;51.458;7.046;2024-02-15T08:53:24;6.77;;;2.10;;
5795;SDS011;2924;51.458;7.046;2024-02-15T08:55:49;8.07;;;2.03;;
5795;SDS011;2924;51.458;7.046;2024-02-15T08:58:17;4.70;;;2.20;;
5795;SDS011;2924;51.458;7.046;2024-02-15T09:00:44;5.37;;;2.10;;
5795;SDS011;2924;51.458;7.046;2024-02-15T09:03:10;10.50;;;3.20;;
5795;SDS011;2924;51.458;7.046;2024-02-15T09:05:37;11.33;;;2.63;;
5795;SDS011;2924;51.458;7.046;2024-02-15T09:08:03;2.50;;;1.67;;
5795;SDS011;2924;51.458;7.046;2024-02-15T09:10:31;7.90;;;2.20;;
5795;SDS011;2924;51.458;7.046;2024-02-15T09:12:57;8.00;;;2.60;;
5795;SDS011;2924;51.458;7.046;2024-02-15T09:15:23;5.03;;;2.30;;
5795;SDS011;2924;51.458;7.046;2024-02-15T09:17:49;5.27;;;2.40;;
5795;SDS011;2924;51.458;7.046;2024-02-15T09:20:16;7.27;;;2.20;;
5795;SDS011;2924;51.458;7.046;2024-02-15T09:22:48;11.63;;;2.23;;
5795;SDS011;2924;51.458;7.046;2024-02-15T09:25:20;3.43;;;2.10;;
5795;SDS011;2924;51.458;7.046;2024-02-15T09:27:49;10.87;;;2.50;;
5795;SDS011;2924;51.458;7.046;2024-02-15T09:30:16;5.83;;;2.63;;
5795;SDS011;2924;51.458;7.046;2024-02-15T09:32:42;5.30;;;2.23;;
5795;SDS011;2924;51.458;7.046;2024-02-15T09:35:09;6.20;;;2.70;;
5795;SDS011;2924;51.458;7.046;2024-02-15T09:37:37;5.50;;;2.40;;
5795;SDS011;2924;51.458;7.046;2024-02-15T09:43:08;6.10;;;1.60;;
5795;SDS011;2924;51.458;7.046;2024-02-15T09:45:34;5.57;;;2.07;;
5795;SDS011;2924;51.458;7.046;2024-02-15T09:48:02;8.93;;;2.13;;
5795;SDS011;2924;51.458;7.046;2024-02-15T09:50:30;5.00;;;1.90;;
5795;SDS011;2924;51.458;7.046;2024-02-15T09:52:59;7.40;;;1.80;;
5795;SDS011;2924;51.458;7.046;2024-02-15T09:55:28;7.20;;;2.23;;
5795;SDS011;2924;51.458;7.046;2024-02-15T09:57:54;4.63;;;1.77;;
5795;SDS011;2924;51.458;7.046;2024-02-15T10:00:20;2.70;;;1.30;;
5795;SDS011;2924;51.458;7.046;2024-02-15T10:02:52;3.57;;;1.60;;
5795;SDS011;2924;51.458;7.046;2024-02-15T10:05:18;5.60;;;1.27;;
5795;SDS011;2924;51.458;7.046;2024-02-15T10:07:45;3.80;;;2.07;;
5795;SDS011;2924;51.458;7.046;2024-02-15T10:10:17;5.60;;;1.60;;
5795;SDS011;2924;51.458;7.046;2024-02-15T10:12:47;8.57;;;1.60;;
5795;SDS011;2924;51.458;7.046;2024-02-15T10:15:29;3.83;;;1.20;;
5795;SDS011;2924;51.458;7.046;2024-02-15T10:18:00;5.40;;;1.80;;
5795;SDS011;2924;51.458;7.046;2024-02-15T10:20:27;8.17;;;1.93;;
5795;SDS011;2924;51.458;7.046;2024-02-15T10:23:08;4.43;;;1.50;;
5795;SDS011;2924;51.458;7.046;2024-02-15T10:25:35;3.57;;;1.70;;
5795;SDS011;2924;51.458;7.046;2024-02-15T10:28:02;7.80;;;2.10;;
5795;SDS011;2924;51.458;7.046;2024-02-15T10:30:33;3.90;;;1.40;;
5795;SDS011;2924;51.458;7.046;2024-02-15T10:33:00;3.33;;;1.83;;
5795;SDS011;2924;51.458;7.046;2024-02-15T10:35:27;3.00;;;2.33;;
5795;SDS011;2924;51.458;7.046;2024-02-15T10:37:54;6.70;;;1.53;;
5795;SDS011;2924;51.458;7.046;2024-02-15T10:40:39;4.20;;;1.50;;
5795;SDS011;2924;51.458;7.046;2024-02-15T10:43:08;11.73;;;1.73;;
5795;SDS011;2924;51.458;7.046;2024-02-15T10:45:38;4.13;;;1.70;;
5795;SDS011;2924;51.458;7.046;2024-02-15T10:48:08;7.67;;;1.57;;
5795;SDS011;2924;51.458;7.046;2024-02-15T10:50:34;5.73;;;1.50;;
5795;SDS011;2924;51.458;7.046;2024-02-15T10:53:01;1.70;;;0.90;;
5795;SDS011;2924;51.458;7.046;2024-02-15T10:55:53;1.13;;;0.80;;
5795;SDS011;2924;51.458;7.046;2024-02-15T10:58:32;5.67;;;1.50;;
5795;SDS011;2924;51.458;7.046;2024-02-15T11:01:03;5.70;;;1.40;;
5795;SDS011;2924;51.458;7.046;2024-02-15T11:03:34;6.80;;;1.33;;
5795;SDS011;2924;51.458;7.046;2024-02-15T11:06:02;7.90;;;1.83;;
5795;SDS011;2924;51.458;7.046;2024-02-15T11:08:31;5.97;;;1.30;;
5795;SDS011;2924;51.458;7.046;2024-02-15T11:10:57;4.00;;;1.80;;
5795;SDS011;2924;51.458;7.046;2024-02-15T11:13:24;1.83;;;1.10;;
5795;SDS011;2924;51.458;7.046;2024-02-15T11:15:50;4.63;;;1.83;;
5795;SDS011;2924;51.458;7.046;2024-02-15T11:18:51;3.67;;;1.37;;
5795;SDS011;2924;51.458;7.046;2024-02-15T11:21:10;2.87;;;1.40;;
5795;SDS011;2924;51.458;7.046;2024-02-15T11:23:36;3.23;;;1.60;;
5795;SDS011;2924;51.458;7.046;2024-02-15T11:26:03;3.10;;;0.90;;
5795;SDS011;2924;51.458;7.046;2024-02-15T11:30:55;3.20;;;1.27;;
5795;SDS011;2924;51.458;7.046;2024-02-15T11:36:11;7.50;;;1.37;;
5795;SDS011;2924;51.458;7.046;2024-02-15T11:38:40;3.77;;;1.03;;
5795;SDS011;2924;51.458;7.046;2024-02-15T11:41:08;1.67;;;0.90;;
5795;SDS011;2924;51.458;7.046;2024-02-15T11:46:23;2.13;;;0.87;;
5795;SDS011;2924;51.458;7.046;2024-02-15T11:48:52;7.73;;;1.50;;
5795;SDS011;2924;51.458;7.046;2024-02-15T11:51:25;6.10;;;1.10;;
5795;SDS011;2924;51.458;7.046;2024-02-15T11:54:11;4.87;;;1.50;;
5795;SDS011;2924;51.458;7.046;2024-02-15T11:59:12;5.03;;;1.33;;
5795;SDS011;2924;51.458;7.046;2024-02-15T12:01:44;4.87;;;1.10;;
5795;SDS011;2924;51.458;7.046;2024-02-15T12:04:29;3.33;;;0.87;;
5795;SDS011;2924;51.458;7.046;2024-02-15T12:07:14;3.80;;;1.23;;
5795;SDS011;2924;51.458;7.046;2024-02-15T12:09:59;2.20;;;1.60;;
5795;SDS011;2924;51.458;7.046;2024-02-15T12:12:53;8.33;;;1.10;;
5795;SDS011;2924;51.458;7.046;2024-02-15T12:15:37;3.70;;;1.03;;
5795;SDS011;2924;51.458;7.046;2024-02-15T12:18:22;2.20;;;0.80;;
5795;SDS011;2924;51.458;7.046;2024-02-15T12:21:06;3.17;;;1.00;;
5795;SDS011;2924;51.458;7.046;2024-02-15T12:23:34;3.40;;;1.00;;
5795;SDS011;2924;51.458;7.046;2024-02-15T12:26:03;3.80;;;1.20;;
5795;SDS011;2924;51.458;7.046;2024-02-15T12:28:29;5.93;;;1.13;;
5795;SDS011;2924;51.458;7.046;2024-02-15T12:30:55;1.07;;;0.80;;
5795;SDS011;2924;51.458;7.046;2024-02-15T12:33:24;1.13;;;1.03;;
5795;SDS011;2924;51.458;7.046;2024-02-15T12:35:52;2.60;;;0.87;;
5795;SDS011;2924;51.458;7.046;2024-02-15T12:38:32;4.53;;;1.37;;
5795;SDS011;2924;51.458;7.046;2024-02-15T12:40:59;4.90;;;1.20;;
5795;SDS011;2924;51.458;7.046;2024-02-15T12:43:27;5.50;;;1.00;;
5795;SDS011;2924;51.458;7.046;2024-02-15T12:45:53;4.63;;;1.10;;
5795;SDS011;2924;51.458;7.046;2024-02-15T12:48:19;2.70;;;0.90;;
5795;SDS011;2924;51.458;7.046;2024-02-15T12:50:45;1.70;;;1.10;;
5795;SDS011;2924;51.458;7.046;2024-02-15T12:53:11;2.43;;;1.07;;
5795;SDS011;2924;51.458;7.046;2024-02-15T12:55:37;8.27;;;1.47;;
5795;SDS011;2924;51.458;7.046;2024-02-15T12:58:04;14.07;;;0.80;;
5795;SDS011;2924;51.458;7.046;2024-02-15T13:00:34;1.90;;;1.07;;
5795;SDS011;2924;51.458;7.046;2024-02-15T13:03:05;2.40;;;1.10;;
5795;SDS011;2924;51.458;7.046;2024-02-15T13:05:40;1.60;;;1.10;;
5795;SDS011;2924;51.458;7.046;2024-02-15T13:08:06;2.20;;;0.80;;
5795;SDS011;2924;51.458;7.046;2024-02-15T13:10:37;1.87;;;0.80;;
5795;SDS011;2924;51.458;7.046;2024-02-15T13:13:04;5.43;;;1.20;;
5795;SDS011;2924;51.458;7.046;2024-02-15T13:15:30;2.70;;;1.00;;
5795;SDS011;2924;51.458;7.046;2024-02-15T13:17:59;3.87;;;1.20;;
5795;SDS011;2924;51.458;7.046;2024-02-15T13:20:28;1.63;;;0.93;;
5795;SDS011;2924;51.458;7.046;2024-02-15T13:23:05;4.53;;;0.73;;
5795;SDS011;2924;51.458;7.046;2024-02-15T13:25:47;1.83;;;0.90;;
5795;SDS011;2924;51.458;7.046;2024-02-15T13:28:14;2.77;;;1.00;;
5795;SDS011;2924;51.458;7.046;2024-02-15T13:30:40;1.97;;;0.80;;
5795;SDS011;2924;51.458;7.046;2024-02-15T13:33:08;4.40;;;1.20;;
5795;SDS011;2924;51.458;7.046;2024-02-15T13:35:34;5.87;;;1.10;;
5795;SDS011;2924;51.458;7.046;2024-02-15T13:38:01;6.17;;;1.00;;
5795;SDS011;2924;51.458;7.046;2024-02-15T13:40:27;2.23;;;1.20;;
5795;SDS011;2924;51.458;7.046;2024-02-15T13:42:55;1.90;;;0.80;;
5795;SDS011;2924;51.458;7.046;2024-02-15T13:45:33;2.20;;;1.40;;
5795;SDS011;2924;51.458;7.046;2024-02-15T13:48:04;1.87;;;1.00;;
5795;SDS011;2924;51.458;7.046;2024-02-15T13:50:32;2.20;;;1.20;;
5795;SDS011;2924;51.458;7.046;2024-02-15T13:52:58;3.00;;;1.07;;
5795;SDS011;2924;51.458;7.046;2024-02-15T13:55:24;6.80;;;1.20;;
5795;SDS011;2924;51.458;7.046;2024-02-15T13:57:51;3.57;;;0.90;;
5795;SDS011;2924;51.458;7.046;2024-02-15T14:00:18;3.27;;;1.37;;
5795;SDS011;2924;51.458;7.046;2024-02-15T14:02:48;1.87;;;0.90;;
5795;SDS011;2924;51.458;7.046;2024-02-15T14:05:14;2.17;;;1.10;;
5795;SDS011;2924;51.458;7.046;2024-02-15T14:07:42;3.10;;;1.33;;
5795;SDS011;2924;51.458;7.046;2024-02-15T14:10:08;9.83;;;2.17;;
5795;SDS011;2924;51.458;7.046;2024-02-15T14:12:35;7.17;;;1.10;;
5795;SDS011;2924;51.458;7.046;2024-02-15T14:15:03;3.63;;;0.90;;
5795;SDS011;2924;51.458;7.046;2024-02-15T14:17:30;3.37;;;1.00;;
5795;SDS011;2924;51.458;7.046;2024-02-15T14:19:56;4.10;;;1.40;;
5795;SDS011;2924;51.458;7.046;2024-02-15T14:22:22;8.70;;;1.30;;
5795;SDS011;2924;51.458;7.046;2024-02-15T14:24:49;4.20;;;1.07;;
5795;SDS011;2924;51.458;7.046;2024-02-15T14:27:15;8.80;;;1.97;;
5795;SDS011;2924;51.458;7.046;2024-02-15T14:29:40;4.53;;;1.30;;
5795;SDS011;2924;51.458;7.046;2024-02-15T14:32:26;4.27;;;1.53;;
5795;SDS011;2924;51.458;7.046;2024-02-15T14:35:10;3.70;;;1.30;;
5795;SDS011;2924;51.458;7.046;2024-02-15T14:37:36;11.80;;;3.50;;
5795;SDS011;2924;51.458;7.046;2024-02-15T14:40:02;2.50;;;1.53;;
5795;SDS011;2924;51.458;7.046;2024-02-15T14:42:28;5.80;;;1.80;;
5795;SDS011;2924;51.458;7.046;2024-02-15T14:44:54;6.57;;;1.60;;
5795;SDS011;2924;51.458;7.046;2024-02-15T14:47:19;3.37;;;1.87;;
5795;SDS011;2924;51.458;7.046;2024-02-15T14:49:45;2.10;;;1.13;;
5795;SDS011;2924;51.458;7.046;2024-02-15T14:52:11;5.43;;;1.23;;
5795;SDS011;2924;51.458;7.046;2024-02-15T14:54:37;1.83;;;1.07;;
5795;SDS011;2924;51.458;7.046;2024-02-15T14:57:03;6.53;;;1.20;;
5795;SDS011;2924;51.458;7.046;2024-02-15T14:59:30;3.33;;;1.47;;
5795;SDS011;2924;51.458;7.046;2024-02-15T15:01:55;4.10;;;1.13;;
5795;SDS011;2924;51.458;7.046;2024-02-15T15:04:22;4.87;;;1.20;;
5795;SDS011;2924;51.458;7.046;2024-02-15T15:06:48;4.00;;;1.70;;
5795;SDS011;2924;51.458;7.046;2024-02-15T15:09:33;6.20;;;1.30;;
5795;SDS011;2924;51.458;7.046;2024-02-15T15:12:17;5.27;;;0.83;;
5795;SDS011;2924;51.458;7.046;2024-02-15T15:15:12;5.93;;;1.13;;
5795;SDS011;2924;51.458;7.046;2024-02-15T15:17:39;5.00;;;1.07;;
5795;SDS011;2924;51.458;7.046;2024-02-15T15:20:05;5.10;;;1.10;;
5795;SDS011;2924;51.458;7.046;2024-02-15T15:22:33;4.73;;;1.30;;
5795;SDS011;2924;51.458;7.046;2024-02-15T15:25:00;1.50;;;1.00;;
5795;SDS011;2924;51.458;7.046;2024-02-15T15:27:34;4.17;;;1.47;;
5795;SDS011;2924;51.458;7.046;2024-02-15T15:30:02;4.50;;;1.43;;
5795;SDS011;2924;51.458;7.046;2024-02-15T15:32:29;2.03;;;1.20;;